sensor_id;sensor_type;location;lat;lon;timestamp;temperature;humidity
4962;DHT22;2496;52.468;13.342;2023-03-14T00:00:05;12.10;99.90
4962;DHT22;2496;52.468;13.342;2023-03-14T00:02:33;12.10;99.90
4962;DHT22;2496;52.468;13.342;2023-03-14T00:05:00;12.10;99.90
4962;DHT22;2496;52.468;13.342;2023-03-14T00:07:32;12.10;99.90
4962;DHT22;2496;52.468;13.342;2023-03-14T00:10:02;12.00;99.90
4962;DHT22;2496;52.468;13.342;2023-03-14T00:12:31;12.00;99.90
4962;DHT22;2496;52.468;13.342;2023-03-14T00:14:58;12.00;99.90
4962;DHT22;2496;52.468;13.342;2023-03-14T00:17:29;12.00;99.90
4962;DHT22;2496;52.468;13.342;2023-03-14T00:19:56;12.00;99.90
4962;DHT22;2496;52.468;13.342;2023-03-14T00:22:29;11.90;99.90
4962;DHT22;2496;52.468;13.342;2023-03-14T00:24:57;11.90;99.90
4962;DHT22;2496;52.468;13.342;2023-03-14T00:27:25;12.00;99.90
4962;DHT22;2496;52.468;13.342;2023-03-14T00:29:52;11.90;99.90
4962;DHT22;2496;52.468;13.342;2023-03-14T00:32:19;11.90;99.90
4962;DHT22;2496;52.468;13.342;2023-03-14T00:34:46;11.90;99.90
4962;DHT22;2496;52.468;13.342;2023-03-14T00:37:13;11.80;99.90
4962;DHT22;2496;52.468;13.342;2023-03-14T00:39:40;11.80;99.90
4962;DHT22;2496;52.468;13.342;2023-03-14T00:42:07;11.80;99.90
4962;DHT22;2496;52.468;13.342;2023-03-14T00:44:36;11.80;99.90
4962;DHT22;2496;52.468;13.342;2023-03-14T00:47:03;11.70;99.90
4962;DHT22;2496;52.468;13.342;2023-03-14T00:49:30;11.70;99.90
4962;DHT22;2496;52.468;13.342;2023-03-14T00:51:57;11.70;99.90
4962;DHT22;2496;52.468;13.342;2023-03-14T00:54:24;11.70;99.90
4962;DHT22;2496;52.468;13.342;2023-03-14T00:56:51;11.70;99.90
4962;DHT22;2496;52.468;13.342;2023-03-14T00:59:18;11.60;99.90
4962;DHT22;2496;52.468;13.342;2023-03-14T01:01:46;11.60;99.90
4962;DHT22;2496;52.468;13.342;2023-03-14T01:04:14;11.60;99.90
4962;DHT22;2496;52.468;13.342;2023-03-14T01:06:40;11.60;99.90
4962;DHT22;2496;52.468;13.342;2023-03-14T01:09:07;11.60;99.90
4962;DHT22;2496;52.468;13.342;2023-03-14T01:11:35;11.50;99.90
4962;DHT22;2496;52.468;13.342;2023-03-14T01:14:03;11.50;99.90
4962;DHT22;2496;52.468;13.342;2023-03-14T01:16:32;11.50;99.90
4962;DHT22;2496;52.468;13.342;2023-03-14T01:19:01;11.50;99.90
4962;DHT22;2496;52.468;13.342;2023-03-14T01:21:31;11.50;99.90
4962;DHT22;2496;52.468;13.342;2023-03-14T01:23:59;11.40;99.90
4962;DHT22;2496;52.468;13.342;2023-03-14T01:26:29;11.40;99.90
4962;DHT22;2496;52.468;13.342;2023-03-14T01:28:57;11.40;99.90
4962;DHT22;2496;52.468;13.342;2023-03-14T01:31:24;11.40;99.90
4962;DHT22;2496;52.468;13.342;2023-03-14T01:33:52;11.40;99.90
4962;DHT22;2496;52.468;13.342;2023-03-14T01:36:20;11.40;99.90
4962;DHT22;2496;52.468;13.342;2023-03-14T01:38:47;11.40;99.90
4962;DHT22;2496;52.468;13.342;2023-03-14T01:41:16;11.40;99.90
4962;DHT22;2496;52.468;13.342;2023-03-14T01:43:43;11.40;99.90
4962;DHT22;2496;52.468;13.342;2023-03-14T01:46:34;11.40;99.90
4962;DHT22;2496;52.468;13.342;2023-03-14T01:51:55;11.40;99.90
4962;DHT22;2496;52.468;13.342;2023-03-14T01:54:26;11.40;99.90
4962;DHT22;2496;52.468;13.342;2023-03-14T01:56:57;11.40;99.90
4962;DHT22;2496;52.468;13.342;2023-03-14T01:59:25;11.40;99.90
4962;DHT22;2496;52.468;13.342;2023-03-14T02:01:54;11.40;99.90
4962;DHT22;2496;52.468;13.342;2023-03-14T02:04:23;11.40;99.90
4962;DHT22;2496;52.468;13.342;2023-03-14T02:06:57;11.30;99.90
4962;DHT22;2496;52.468;13.342;2023-03-14T02:09:25;11.30;99.90
4962;DHT22;2496;52.468;13.342;2023-03-14T02:11:52;11.30;99.90
4962;DHT22;2496;52.468;13.342;2023-03-14T02:14:29;11.30;99.90
4962;DHT22;2496;52.468;13.342;2023-03-14T02:16:57;11.30;99.90
4962;DHT22;2496;52.468;13.342;2023-03-14T02:19:37;11.30;99.90
4962;DHT22;2496;52.468;13.342;2023-03-14T02:22:11;11.30;99.90
4962;DHT22;2496;52.468;13.342;2023-03-14T02:24:43;11.30;99.90
4962;DHT22;2496;52.468;13.342;2023-03-14T02:27:14;11.20;99.90
4962;DHT22;2496;52.468;13.342;2023-03-14T02:29:47;11.20;99.90
4962;DHT22;2496;52.468;13.342;2023-03-14T02:32:16;11.20;99.90
4962;DHT22;2496;52.468;13.342;2023-03-14T02:34:48;11.20;99.90
4962;DHT22;2496;52.468;13.342;2023-03-14T02:37:16;11.20;99.90
4962;DHT22;2496;52.468;13.342;2023-03-14T02:39:45;11.20;99.90
4962;DHT22;2496;52.468;13.342;2023-03-14T02:42:16;11.20;99.90
4962;DHT22;2496;52.468;13.342;2023-03-14T02:44:51;11.20;99.90
4962;DHT22;2496;52.468;13.342;2023-03-14T02:47:21;11.20;99.90
4962;DHT22;2496;52.468;13.342;2023-03-14T02:49:49;11.20;99.90
4962;DHT22;2496;52.468;13.342;2023-03-14T02:52:17;11.20;99.90
4962;DHT22;2496;52.468;13.342;2023-03-14T02:54:44;11.20;99.90
4962;DHT22;2496;52.468;13.342;2023-03-14T02:57:11;11.20;99.90
4962;DHT22;2496;52.468;13.342;2023-03-14T02:59:39;11.20;99.90
4962;DHT22;2496;52.468;13.342;2023-03-14T03:02:06;11.20;99.90
4962;DHT22;2496;52.468;13.342;2023-03-14T03:04:33;11.20;99.90
4962;DHT22;2496;52.468;13.342;2023-03-14T03:07:01;11.20;99.90
4962;DHT22;2496;52.468;13.342;2023-03-14T03:09:28;11.20;99.90
4962;DHT22;2496;52.468;13.342;2023-03-14T03:11:55;11.20;99.90
4962;DHT22;2496;52.468;13.342;2023-03-14T03:14:22;11.20;99.90
4962;DHT22;2496;52.468;13.342;2023-03-14T03:16:50;11.10;99.90
4962;DHT22;2496;52.468;13.342;2023-03-14T03:19:17;11.10;99.90
4962;DHT22;2496;52.468;13.342;2023-03-14T03:21:44;11.10;99.90
4962;DHT22;2496;52.468;13.342;2023-03-14T03:24:11;11.10;99.90
4962;DHT22;2496;52.468;13.342;2023-03-14T03:26:38;11.10;99.90
4962;DHT22;2496;52.468;13.342;2023-03-14T03:29:05;11.10;99.90
4962;DHT22;2496;52.468;13.342;2023-03-14T03:31:32;11.10;99.90
4962;DHT22;2496;52.468;13.342;2023-03-14T03:34:01;11.10;99.90
4962;DHT22;2496;52.468;13.342;2023-03-14T03:36:28;11.00;99.90
4962;DHT22;2496;52.468;13.342;2023-03-14T03:38:55;11.10;99.90
4962;DHT22;2496;52.468;13.342;2023-03-14T03:41:22;11.00;99.90
4962;DHT22;2496;52.468;13.342;2023-03-14T03:43:49;11.00;99.90
4962;DHT22;2496;52.468;13.342;2023-03-14T03:46:16;11.00;99.90
4962;DHT22;2496;52.468;13.342;2023-03-14T03:48:43;11.00;99.90
4962;DHT22;2496;52.468;13.342;2023-03-14T03:51:14;11.00;99.90
4962;DHT22;2496;52.468;13.342;2023-03-14T03:53:42;11.00;99.90
4962;DHT22;2496;52.468;13.342;2023-03-14T03:56:09;11.00;99.90
4962;DHT22;2496;52.468;13.342;2023-03-14T03:58:36;11.00;99.90
4962;DHT22;2496;52.468;13.342;2023-03-14T04:01:06;11.00;99.90
4962;DHT22;2496;52.468;13.342;2023-03-14T04:03:33;11.00;99.90
4962;DHT22;2496;52.468;13.342;2023-03-14T04:06:02;11.00;99.90
4962;DHT22;2496;52.468;13.342;2023-03-14T04:08:30;11.00;99.90
4962;DHT22;2496;52.468;13.342;2023-03-14T04:10:58;10.90;99.90
4962;DHT22;2496;52.468;13.342;2023-03-14T04:13:26;11.00;99.90
4962;DHT22;2496;52.468;13.342;2023-03-14T04:15:54;10.90;99.90
4962;DHT22;2496;52.468;13.342;2023-03-14T04:18:22;10.90;99.90
4962;DHT22;2496;52.468;13.342;2023-03-14T04:20:51;10.90;99.90
4962;DHT22;2496;52.468;13.342;2023-03-14T04:23:19;10.90;99.90
4962;DHT22;2496;52.468;13.342;2023-03-14T04:25:51;10.90;99.90
4962;DHT22;2496;52.468;13.342;2023-03-14T04:28:18;10.90;99.90
4962;DHT22;2496;52.468;13.342;2023-03-14T04:30:47;10.90;99.90
4962;DHT22;2496;52.468;13.342;2023-03-14T04:33:14;10.90;99.90
4962;DHT22;2496;52.468;13.342;2023-03-14T04:35:43;10.90;99.90
4962;DHT22;2496;52.468;13.342;2023-03-14T04:38:10;10.90;99.90
4962;DHT22;2496;52.468;13.342;2023-03-14T04:40:38;10.90;99.90
4962;DHT22;2496;52.468;13.342;2023-03-14T04:43:06;10.90;99.90
4962;DHT22;2496;52.468;13.342;2023-03-14T04:45:33;10.90;99.90
4962;DHT22;2496;52.468;13.342;2023-03-14T04:48:00;10.90;99.90
4962;DHT22;2496;52.468;13.342;2023-03-14T04:50:28;10.90;99.90
4962;DHT22;2496;52.468;13.342;2023-03-14T04:52:55;10.80;99.90
4962;DHT22;2496;52.468;13.342;2023-03-14T04:55:22;10.80;99.90
4962;DHT22;2496;52.468;13.342;2023-03-14T04:57:49;10.80;99.90
4962;DHT22;2496;52.468;13.342;2023-03-14T05:00:18;10.80;99.90
4962;DHT22;2496;52.468;13.342;2023-03-14T05:02:45;10.80;99.90
4962;DHT22;2496;52.468;13.342;2023-03-14T05:05:12;10.80;99.90
4962;DHT22;2496;52.468;13.342;2023-03-14T05:07:39;10.80;99.90
4962;DHT22;2496;52.468;13.342;2023-03-14T05:10:06;10.80;99.90
4962;DHT22;2496;52.468;13.342;2023-03-14T05:12:33;10.80;99.90
4962;DHT22;2496;52.468;13.342;2023-03-14T05:15:01;10.80;99.90
4962;DHT22;2496;52.468;13.342;2023-03-14T05:17:29;10.80;99.90
4962;DHT22;2496;52.468;13.342;2023-03-14T05:19:56;10.80;99.90
4962;DHT22;2496;52.468;13.342;2023-03-14T05:22:23;10.80;99.90
4962;DHT22;2496;52.468;13.342;2023-03-14T05:24:50;10.80;99.90
4962;DHT22;2496;52.468;13.342;2023-03-14T05:27:19;10.80;99.90
4962;DHT22;2496;52.468;13.342;2023-03-14T05:29:47;10.80;99.90
4962;DHT22;2496;52.468;13.342;2023-03-14T05:32:14;10.80;99.90
4962;DHT22;2496;52.468;13.342;2023-03-14T05:34:42;10.80;99.90
4962;DHT22;2496;52.468;13.342;2023-03-14T05:37:09;10.70;99.90
4962;DHT22;2496;52.468;13.342;2023-03-14T05:39:36;10.80;99.90
4962;DHT22;2496;52.468;13.342;2023-03-14T05:42:03;10.80;99.90
4962;DHT22;2496;52.468;13.342;2023-03-14T05:44:31;10.80;99.90
4962;DHT22;2496;52.468;13.342;2023-03-14T05:46:58;10.80;99.90
4962;DHT22;2496;52.468;13.342;2023-03-14T05:49:25;10.80;99.90
4962;DHT22;2496;52.468;13.342;2023-03-14T05:51:53;10.80;99.90
4962;DHT22;2496;52.468;13.342;2023-03-14T05:54:20;10.80;99.90
4962;DHT22;2496;52.468;13.342;2023-03-14T05:56:47;10.80;99.90
4962;DHT22;2496;52.468;13.342;2023-03-14T05:59:14;10.80;99.90
4962;DHT22;2496;52.468;13.342;2023-03-14T06:01:41;10.80;99.90
4962;DHT22;2496;52.468;13.342;2023-03-14T06:04:09;10.80;99.90
4962;DHT22;2496;52.468;13.342;2023-03-14T06:06:36;10.80;99.90
4962;DHT22;2496;52.468;13.342;2023-03-14T06:09:04;10.80;99.90
4962;DHT22;2496;52.468;13.342;2023-03-14T06:11:31;10.80;99.90
4962;DHT22;2496;52.468;13.342;2023-03-14T06:13:58;10.80;99.90
4962;DHT22;2496;52.468;13.342;2023-03-14T06:16:25;10.80;99.90
4962;DHT22;2496;52.468;13.342;2023-03-14T06:18:52;10.80;99.90
4962;DHT22;2496;52.468;13.342;2023-03-14T06:21:19;10.90;99.90
4962;DHT22;2496;52.468;13.342;2023-03-14T06:23:46;10.90;99.90
4962;DHT22;2496;52.468;13.342;2023-03-14T06:26:15;10.90;99.90
4962;DHT22;2496;52.468;13.342;2023-03-14T06:28:42;10.90;99.90
4962;DHT22;2496;52.468;13.342;2023-03-14T06:31:09;11.00;99.90
4962;DHT22;2496;52.468;13.342;2023-03-14T06:33:36;11.00;99.90
4962;DHT22;2496;52.468;13.342;2023-03-14T06:36:03;11.00;99.90
4962;DHT22;2496;52.468;13.342;2023-03-14T06:38:30;11.00;99.90
4962;DHT22;2496;52.468;13.342;2023-03-14T06:41:03;11.00;99.90
4962;DHT22;2496;52.468;13.342;2023-03-14T06:43:31;11.10;99.90
4962;DHT22;2496;52.468;13.342;2023-03-14T06:45:59;11.10;99.90
4962;DHT22;2496;52.468;13.342;2023-03-14T06:48:26;11.10;99.90
4962;DHT22;2496;52.468;13.342;2023-03-14T06:50:53;11.20;99.90
4962;DHT22;2496;52.468;13.342;2023-03-14T06:53:20;11.20;99.90
4962;DHT22;2496;52.468;13.342;2023-03-14T06:55:47;11.20;99.90
4962;DHT22;2496;52.468;13.342;2023-03-14T06:58:14;11.30;99.90
4962;DHT22;2496;52.468;13.342;2023-03-14T07:00:43;11.30;99.90
4962;DHT22;2496;52.468;13.342;2023-03-14T07:03:10;11.40;99.90
4962;DHT22;2496;52.468;13.342;2023-03-14T07:05:39;11.40;99.90
4962;DHT22;2496;52.468;13.342;2023-03-14T07:08:07;11.40;99.90
4962;DHT22;2496;52.468;13.342;2023-03-14T07:10:35;11.50;99.90
4962;DHT22;2496;52.468;13.342;2023-03-14T07:13:02;11.50;99.90
4962;DHT22;2496;52.468;13.342;2023-03-14T07:15:29;11.60;99.90
4962;DHT22;2496;52.468;13.342;2023-03-14T07:17:57;11.60;99.90
4962;DHT22;2496;52.468;13.342;2023-03-14T07:20:25;11.60;99.90
4962;DHT22;2496;52.468;13.342;2023-03-14T07:22:52;11.60;99.90
4962;DHT22;2496;52.468;13.342;2023-03-14T07:25:19;11.60;99.90
4962;DHT22;2496;52.468;13.342;2023-03-14T07:27:47;11.60;99.90
4962;DHT22;2496;52.468;13.342;2023-03-14T07:30:14;11.70;99.90
4962;DHT22;2496;52.468;13.342;2023-03-14T07:32:41;11.80;99.90
4962;DHT22;2496;52.468;13.342;2023-03-14T07:35:10;12.00;99.90
4962;DHT22;2496;52.468;13.342;2023-03-14T07:37:37;12.20;99.90
4962;DHT22;2496;52.468;13.342;2023-03-14T07:40:05;12.30;99.90
4962;DHT22;2496;52.468;13.342;2023-03-14T07:42:33;12.40;99.90
4962;DHT22;2496;52.468;13.342;2023-03-14T07:45:00;12.40;99.90
4962;DHT22;2496;52.468;13.342;2023-03-14T07:47:28;12.40;99.90
4962;DHT22;2496;52.468;13.342;2023-03-14T07:49:55;12.40;99.90
4962;DHT22;2496;52.468;13.342;2023-03-14T07:52:24;12.40;99.90
4962;DHT22;2496;52.468;13.342;2023-03-14T07:54:51;12.40;99.90
4962;DHT22;2496;52.468;13.342;2023-03-14T07:57:18;12.30;99.90
4962;DHT22;2496;52.468;13.342;2023-03-14T07:59:45;12.30;99.90
4962;DHT22;2496;52.468;13.342;2023-03-14T08:02:12;12.30;99.90
4962;DHT22;2496;52.468;13.342;2023-03-14T08:04:40;12.30;99.90
4962;DHT22;2496;52.468;13.342;2023-03-14T08:07:07;12.30;99.90
4962;DHT22;2496;52.468;13.342;2023-03-14T08:09:36;12.40;99.90
4962;DHT22;2496;52.468;13.342;2023-03-14T08:12:04;12.40;99.90
4962;DHT22;2496;52.468;13.342;2023-03-14T08:14:31;12.30;99.90
4962;DHT22;2496;52.468;13.342;2023-03-14T08:16:58;12.30;99.90
4962;DHT22;2496;52.468;13.342;2023-03-14T08:19:26;12.30;99.90
4962;DHT22;2496;52.468;13.342;2023-03-14T08:21:53;12.30;99.90
4962;DHT22;2496;52.468;13.342;2023-03-14T08:24:21;12.30;99.90
4962;DHT22;2496;52.468;13.342;2023-03-14T08:26:49;12.30;99.90
4962;DHT22;2496;52.468;13.342;2023-03-14T08:29:16;12.30;99.90
4962;DHT22;2496;52.468;13.342;2023-03-14T08:31:43;12.30;99.90
4962;DHT22;2496;52.468;13.342;2023-03-14T08:34:10;12.30;99.90
4962;DHT22;2496;52.468;13.342;2023-03-14T08:36:37;12.30;99.90
4962;DHT22;2496;52.468;13.342;2023-03-14T08:39:04;12.30;99.90
4962;DHT22;2496;52.468;13.342;2023-03-14T08:41:33;12.30;99.90
4962;DHT22;2496;52.468;13.342;2023-03-14T08:44:07;12.30;99.90
4962;DHT22;2496;52.468;13.342;2023-03-14T08:46:34;12.30;99.90
4962;DHT22;2496;52.468;13.342;2023-03-14T08:49:02;12.30;99.90
4962;DHT22;2496;52.468;13.342;2023-03-14T08:51:29;12.30;99.90
4962;DHT22;2496;52.468;13.342;2023-03-14T08:53:56;12.30;99.90
4962;DHT22;2496;52.468;13.342;2023-03-14T08:56:23;12.30;99.90
4962;DHT22;2496;52.468;13.342;2023-03-14T08:58:50;12.30;99.90
4962;DHT22;2496;52.468;13.342;2023-03-14T09:01:19;12.30;99.90
4962;DHT22;2496;52.468;13.342;2023-03-14T09:03:49;12.30;99.90
4962;DHT22;2496;52.468;13.342;2023-03-14T09:06:16;12.30;99.90
4962;DHT22;2496;52.468;13.342;2023-03-14T09:08:44;12.30;99.90
4962;DHT22;2496;52.468;13.342;2023-03-14T09:11:11;12.40;99.90
4962;DHT22;2496;52.468;13.342;2023-03-14T09:13:39;12.50;99.90
4962;DHT22;2496;52.468;13.342;2023-03-14T09:16:07;12.60;99.90
4962;DHT22;2496;52.468;13.342;2023-03-14T09:18:35;13.90;99.90
4962;DHT22;2496;52.468;13.342;2023-03-14T09:21:03;14.00;99.90
4962;DHT22;2496;52.468;13.342;2023-03-14T09:23:30;14.90;99.90
4962;DHT22;2496;52.468;13.342;2023-03-14T09:25:57;15.70;99.90
4962;DHT22;2496;52.468;13.342;2023-03-14T09:28:25;16.30;99.90
4962;DHT22;2496;52.468;13.342;2023-03-14T09:30:52;16.80;99.90
4962;DHT22;2496;52.468;13.342;2023-03-14T09:33:20;17.00;99.90
4962;DHT22;2496;52.468;13.342;2023-03-14T09:35:48;16.80;99.90
4962;DHT22;2496;52.468;13.342;2023-03-14T09:38:15;16.40;99.90
4962;DHT22;2496;52.468;13.342;2023-03-14T09:40:43;16.10;99.90
4962;DHT22;2496;52.468;13.342;2023-03-14T09:43:11;15.70;99.90
4962;DHT22;2496;52.468;13.342;2023-03-14T09:45:41;15.40;99.90
4962;DHT22;2496;52.468;13.342;2023-03-14T09:48:15;15.00;99.90
4962;DHT22;2496;52.468;13.342;2023-03-14T09:50:44;14.60;99.90
4962;DHT22;2496;52.468;13.342;2023-03-14T09:53:16;14.30;99.90
4962;DHT22;2496;52.468;13.342;2023-03-14T09:55:45;14.10;99.90
4962;DHT22;2496;52.468;13.342;2023-03-14T09:58:16;13.90;99.90
4962;DHT22;2496;52.468;13.342;2023-03-14T10:00:44;13.80;99.90
4962;DHT22;2496;52.468;13.342;2023-03-14T10:03:22;13.70;99.90
4962;DHT22;2496;52.468;13.342;2023-03-14T10:05:51;13.50;99.90
4962;DHT22;2496;52.468;13.342;2023-03-14T10:08:20;13.50;99.90
4962;DHT22;2496;52.468;13.342;2023-03-14T10:10:47;13.40;99.90
4962;DHT22;2496;52.468;13.342;2023-03-14T10:13:17;13.40;99.90
4962;DHT22;2496;52.468;13.342;2023-03-14T10:15:48;13.30;99.90
4962;DHT22;2496;52.468;13.342;2023-03-14T10:18:17;13.30;99.90
4962;DHT22;2496;52.468;13.342;2023-03-14T10:20:48;13.30;99.90
4962;DHT22;2496;52.468;13.342;2023-03-14T10:23:34;13.20;99.90
4962;DHT22;2496;52.468;13.342;2023-03-14T10:26:13;13.20;99.90
4962;DHT22;2496;52.468;13.342;2023-03-14T10:28:43;13.20;99.90
4962;DHT22;2496;52.468;13.342;2023-03-14T10:31:10;13.20;99.90
4962;DHT22;2496;52.468;13.342;2023-03-14T10:33:38;13.20;99.90
4962;DHT22;2496;52.468;13.342;2023-03-14T10:36:14;13.20;99.90
4962;DHT22;2496;52.468;13.342;2023-03-14T10:38:43;13.20;99.90
4962;DHT22;2496;52.468;13.342;2023-03-14T10:41:16;13.20;99.90
4962;DHT22;2496;52.468;13.342;2023-03-14T10:43:44;13.10;99.90
4962;DHT22;2496;52.468;13.342;2023-03-14T10:46:15;13.10;99.90
4962;DHT22;2496;52.468;13.342;2023-03-14T10:48:43;13.10;99.90
4962;DHT22;2496;52.468;13.342;2023-03-14T10:51:18;13.10;99.90
4962;DHT22;2496;52.468;13.342;2023-03-14T10:53:49;13.10;99.90
4962;DHT22;2496;52.468;13.342;2023-03-14T10:56:18;13.10;99.90
4962;DHT22;2496;52.468;13.342;2023-03-14T10:58:46;13.10;99.90
4962;DHT22;2496;52.468;13.342;2023-03-14T11:01:32;13.10;99.90
4962;DHT22;2496;52.468;13.342;2023-03-14T11:04:15;13.10;99.90
4962;DHT22;2496;52.468;13.342;2023-03-14T11:06:52;13.10;99.90
4962;DHT22;2496;52.468;13.342;2023-03-14T11:09:28;13.10;99.90
4962;DHT22;2496;52.468;13.342;2023-03-14T11:12:02;13.20;99.90
4962;DHT22;2496;52.468;13.342;2023-03-14T11:14:36;13.20;99.90
4962;DHT22;2496;52.468;13.342;2023-03-14T11:17:12;13.20;99.90
4962;DHT22;2496;52.468;13.342;2023-03-14T11:20:03;13.30;99.90
4962;DHT22;2496;52.468;13.342;2023-03-14T11:22:39;13.30;99.90
4962;DHT22;2496;52.468;13.342;2023-03-14T11:25:18;13.30;99.90
4962;DHT22;2496;52.468;13.342;2023-03-14T11:27:54;13.30;99.90
4962;DHT22;2496;52.468;13.342;2023-03-14T11:30:26;13.30;99.90
4962;DHT22;2496;52.468;13.342;2023-03-14T11:33:02;13.30;99.90
4962;DHT22;2496;52.468;13.342;2023-03-14T11:35:34;13.30;99.90
4962;DHT22;2496;52.468;13.342;2023-03-14T11:38:24;13.30;99.90
4962;DHT22;2496;52.468;13.342;2023-03-14T11:40:57;13.30;99.90
4962;DHT22;2496;52.468;13.342;2023-03-14T11:43:27;13.30;99.90
4962;DHT22;2496;52.468;13.342;2023-03-14T11:45:58;13.30;99.90
4962;DHT22;2496;52.468;13.342;2023-03-14T11:48:36;13.30;99.90
4962;DHT22;2496;52.468;13.342;2023-03-14T11:51:09;13.30;99.90
4962;DHT22;2496;52.468;13.342;2023-03-14T11:53:46;13.30;99.90
4962;DHT22;2496;52.468;13.342;2023-03-14T11:56:22;13.20;99.90
4962;DHT22;2496;52.468;13.342;2023-03-14T11:58:57;13.20;99.90
4962;DHT22;2496;52.468;13.342;2023-03-14T12:01:34;13.20;99.90
4962;DHT22;2496;52.468;13.342;2023-03-14T12:04:10;13.20;99.90
4962;DHT22;2496;52.468;13.342;2023-03-14T12:06:45;13.20;99.90
4962;DHT22;2496;52.468;13.342;2023-03-14T12:09:14;13.20;99.90
4962;DHT22;2496;52.468;13.342;2023-03-14T12:11:45;13.20;99.90
4962;DHT22;2496;52.468;13.342;2023-03-14T12:14:27;13.20;99.90
4962;DHT22;2496;52.468;13.342;2023-03-14T12:17:23;13.20;99.90
4962;DHT22;2496;52.468;13.342;2023-03-14T12:23:17;13.30;99.90
4962;DHT22;2496;52.468;13.342;2023-03-14T12:26:43;13.30;99.90
4962;DHT22;2496;52.468;13.342;2023-03-14T12:29:18;13.40;99.90
4962;DHT22;2496;52.468;13.342;2023-03-14T12:32:12;13.40;99.90
4962;DHT22;2496;52.468;13.342;2023-03-14T12:38:29;13.30;99.90
4962;DHT22;2496;52.468;13.342;2023-03-14T12:41:11;13.40;99.90
4962;DHT22;2496;52.468;13.342;2023-03-14T12:50:53;13.40;99.90
4962;DHT22;2496;52.468;13.342;2023-03-14T12:54:02;13.30;99.90
4962;DHT22;2496;52.468;13.342;2023-03-14T12:57:26;13.30;99.90
4962;DHT22;2496;52.468;13.342;2023-03-14T13:00:18;13.30;99.90
4962;DHT22;2496;52.468;13.342;2023-03-14T13:02:46;13.30;99.90
4962;DHT22;2496;52.468;13.342;2023-03-14T13:05:21;13.20;99.90
4962;DHT22;2496;52.468;13.342;2023-03-14T13:08:05;13.10;99.90
4962;DHT22;2496;52.468;13.342;2023-03-14T13:10:41;13.00;99.90
4962;DHT22;2496;52.468;13.342;2023-03-14T13:13:17;12.90;99.90
4962;DHT22;2496;52.468;13.342;2023-03-14T13:15:47;12.80;99.90
4962;DHT22;2496;52.468;13.342;2023-03-14T13:18:18;12.70;99.90
4962;DHT22;2496;52.468;13.342;2023-03-14T13:20:53;12.60;99.90
4962;DHT22;2496;52.468;13.342;2023-03-14T13:23:23;12.50;99.90
4962;DHT22;2496;52.468;13.342;2023-03-14T13:25:51;12.50;99.90
4962;DHT22;2496;52.468;13.342;2023-03-14T13:28:18;12.50;99.90
4962;DHT22;2496;52.468;13.342;2023-03-14T13:30:47;12.60;99.90
4962;DHT22;2496;52.468;13.342;2023-03-14T13:33:16;12.70;99.90
4962;DHT22;2496;52.468;13.342;2023-03-14T13:35:44;12.70;99.90
4962;DHT22;2496;52.468;13.342;2023-03-14T13:38:20;12.70;99.90
4962;DHT22;2496;52.468;13.342;2023-03-14T13:40:51;12.80;99.90
4962;DHT22;2496;52.468;13.342;2023-03-14T13:43:21;12.90;99.90
4962;DHT22;2496;52.468;13.342;2023-03-14T13:45:52;12.90;99.90
4962;DHT22;2496;52.468;13.342;2023-03-14T13:48:22;12.90;99.90
4962;DHT22;2496;52.468;13.342;2023-03-14T13:50:55;12.90;99.90
4962;DHT22;2496;52.468;13.342;2023-03-14T13:53:22;12.90;99.90
4962;DHT22;2496;52.468;13.342;2023-03-14T13:55:51;12.90;99.90
4962;DHT22;2496;52.468;13.342;2023-03-14T13:58:25;12.90;99.90
4962;DHT22;2496;52.468;13.342;2023-03-14T14:01:04;13.00;99.90
4962;DHT22;2496;52.468;13.342;2023-03-14T14:03:36;13.00;99.90
4962;DHT22;2496;52.468;13.342;2023-03-14T14:06:11;13.00;99.90
4962;DHT22;2496;52.468;13.342;2023-03-14T14:08:45;13.10;99.90
4962;DHT22;2496;52.468;13.342;2023-03-14T14:11:21;13.10;99.90
4962;DHT22;2496;52.468;13.342;2023-03-14T14:13:49;13.10;99.90
4962;DHT22;2496;52.468;13.342;2023-03-14T14:16:20;13.20;99.90
4962;DHT22;2496;52.468;13.342;2023-03-14T14:18:51;13.20;99.90
4962;DHT22;2496;52.468;13.342;2023-03-14T14:21:19;13.20;99.90
4962;DHT22;2496;52.468;13.342;2023-03-14T14:23:47;13.20;99.90
4962;DHT22;2496;52.468;13.342;2023-03-14T14:26:16;13.30;99.90
4962;DHT22;2496;52.468;13.342;2023-03-14T14:28:45;13.30;99.90
4962;DHT22;2496;52.468;13.342;2023-03-14T14:31:20;13.30;99.90
4962;DHT22;2496;52.468;13.342;2023-03-14T14:33:54;13.20;99.90
4962;DHT22;2496;52.468;13.342;2023-03-14T14:36:23;13.20;99.90
4962;DHT22;2496;52.468;13.342;2023-03-14T14:38:57;13.10;99.90
4962;DHT22;2496;52.468;13.342;2023-03-14T14:41:29;13.20;99.90
4962;DHT22;2496;52.468;13.342;2023-03-14T14:43:58;13.20;99.90
4962;DHT22;2496;52.468;13.342;2023-03-14T14:46:28;13.30;99.90
4962;DHT22;2496;52.468;13.342;2023-03-14T14:48:56;13.30;99.90
4962;DHT22;2496;52.468;13.342;2023-03-14T14:51:26;13.30;99.90
4962;DHT22;2496;52.468;13.342;2023-03-14T14:54:10;13.30;99.90
4962;DHT22;2496;52.468;13.342;2023-03-14T14:56:39;13.30;99.90
4962;DHT22;2496;52.468;13.342;2023-03-14T14:59:18;13.30;99.90
4962;DHT22;2496;52.468;13.342;2023-03-14T15:01:46;13.30;99.90
4962;DHT22;2496;52.468;13.342;2023-03-14T15:04:15;13.30;99.90
4962;DHT22;2496;52.468;13.342;2023-03-14T15:06:44;13.20;99.90
4962;DHT22;2496;52.468;13.342;2023-03-14T15:09:12;13.20;99.90
4962;DHT22;2496;52.468;13.342;2023-03-14T15:11:41;13.20;99.90
4962;DHT22;2496;52.468;13.342;2023-03-14T15:14:08;13.20;99.90
4962;DHT22;2496;52.468;13.342;2023-03-14T15:16:35;13.20;99.90
4962;DHT22;2496;52.468;13.342;2023-03-14T15:19:08;13.00;99.90
4962;DHT22;2496;52.468;13.342;2023-03-14T15:21:35;12.50;99.90
4962;DHT22;2496;52.468;13.342;2023-03-14T15:24:04;11.10;99.90
4962;DHT22;2496;52.468;13.342;2023-03-14T15:26:31;10.00;99.90
4962;DHT22;2496;52.468;13.342;2023-03-14T15:28:59;9.00;99.90
4962;DHT22;2496;52.468;13.342;2023-03-14T15:31:26;8.40;99.90
4962;DHT22;2496;52.468;13.342;2023-03-14T15:33:53;7.90;99.90
4962;DHT22;2496;52.468;13.342;2023-03-14T15:36:22;7.60;99.90
4962;DHT22;2496;52.468;13.342;2023-03-14T15:38:50;7.30;99.90
4962;DHT22;2496;52.468;13.342;2023-03-14T15:41:17;7.10;99.90
4962;DHT22;2496;52.468;13.342;2023-03-14T15:43:44;6.90;99.90
4962;DHT22;2496;52.468;13.342;2023-03-14T15:46:13;6.90;99.90
4962;DHT22;2496;52.468;13.342;2023-03-14T15:48:42;6.70;99.90
4962;DHT22;2496;52.468;13.342;2023-03-14T15:51:10;6.60;99.90
4962;DHT22;2496;52.468;13.342;2023-03-14T15:53:37;6.30;99.90
4962;DHT22;2496;52.468;13.342;2023-03-14T15:56:05;6.20;99.90
4962;DHT22;2496;52.468;13.342;2023-03-14T15:58:33;5.90;99.90
4962;DHT22;2496;52.468;13.342;2023-03-14T16:01:00;5.70;99.90
4962;DHT22;2496;52.468;13.342;2023-03-14T16:03:29;5.50;99.90
4962;DHT22;2496;52.468;13.342;2023-03-14T16:05:56;5.20;99.90
4962;DHT22;2496;52.468;13.342;2023-03-14T16:08:23;5.00;99.90
4962;DHT22;2496;52.468;13.342;2023-03-14T16:10:52;4.80;99.90
4962;DHT22;2496;52.468;13.342;2023-03-14T16:13:19;4.60;99.90
4962;DHT22;2496;52.468;13.342;2023-03-14T16:15:54;4.20;99.90
4962;DHT22;2496;52.468;13.342;2023-03-14T16:18:21;3.90;99.90
4962;DHT22;2496;52.468;13.342;2023-03-14T16:20:54;3.80;99.90